sensor_id;sensor_type;location;lat;lon;timestamp;pressure;altitude;pressure_sealevel;temperature;humidity
74169;BME280;62523;53.336;83.690;2022-12-15T00:01:23;102710.47;;;-25.01;90.95
74169;BME280;62523;53.336;83.690;2022-12-15T00:06:43;102719.09;;;-24.80;91.25
74169;BME280;62523;53.336;83.690;2022-12-15T00:12:02;102719.25;;;-24.73;91.21
74169;BME280;62523;53.336;83.690;2022-12-15T00:17:22;102688.72;;;-24.77;91.60
74169;BME280;62523;53.336;83.690;2022-12-15T00:22:41;102720.16;;;-24.54;91.23
74169;BME280;62523;53.336;83.690;2022-12-15T00:28:01;102720.28;;;-24.47;91.56
74169;BME280;62523;53.336;83.690;2022-12-15T00:33:20;102716.78;;;-24.36;91.39
74169;BME280;62523;53.336;83.690;2022-12-15T00:38:40;102736.56;;;-24.25;91.69
74169;BME280;62523;53.336;83.690;2022-12-15T00:43:44;102754.16;;;-24.36;90.96
74169;BME280;62523;53.336;83.690;2022-12-15T00:48:45;102764.06;;;-24.49;91.23
74169;BME280;62523;53.336;83.690;2022-12-15T00:53:47;102758.84;;;-24.50;91.36
74169;BME280;62523;53.336;83.690;2022-12-15T00:59:06;102764.59;;;-24.57;90.92
74169;BME280;62523;53.336;83.690;2022-12-15T01:04:27;102771.91;;;-24.64;91.00
74169;BME280;62523;53.336;83.690;2022-12-15T01:09:46;102788.59;;;-24.82;90.45
74169;BME280;62523;53.336;83.690;2022-12-15T01:15:06;102794.25;;;-24.83;90.97
74169;BME280;62523;53.336;83.690;2022-12-15T01:20:26;102780.19;;;-25.06;90.33
74169;BME280;62523;53.336;83.690;2022-12-15T01:25:27;102782.38;;;-24.96;90.70
74169;BME280;62523;53.336;83.690;2022-12-15T01:30:28;102796.75;;;-24.83;90.49
74169;BME280;62523;53.336;83.690;2022-12-15T01:35:30;102783.81;;;-24.80;90.52
74169;BME280;62523;53.336;83.690;2022-12-15T01:40:32;102771.88;;;-24.88;90.33
74169;BME280;62523;53.336;83.690;2022-12-15T01:51:02;102764.22;;;-24.90;90.33
74169;BME280;62523;53.336;83.690;2022-12-15T01:56:05;102778.03;;;-25.46;89.76
74169;BME280;62523;53.336;83.690;2022-12-15T02:01:08;102781.31;;;-25.34;89.96
74169;BME280;62523;53.336;83.690;2022-12-15T02:06:11;102781.47;;;-25.21;90.04
74169;BME280;62523;53.336;83.690;2022-12-15T02:32:59;102784.88;;;-24.72;90.65
74169;BME280;62523;53.336;83.690;2022-12-15T02:38:02;102792.84;;;-24.51;90.81
74169;BME280;62523;53.336;83.690;2022-12-15T02:43:05;102791.22;;;-24.50;90.69
74169;BME280;62523;53.336;83.690;2022-12-15T02:49:02;102787.91;;;-24.38;90.64
74169;BME280;62523;53.336;83.690;2022-12-15T02:53:40;102804.06;;;-24.23;90.74
74169;BME280;62523;53.336;83.690;2022-12-15T02:58:46;102799.94;;;-24.17;90.71
74169;BME280;62523;53.336;83.690;2022-12-15T03:03:49;102791.03;;;-24.33;90.45
74169;BME280;62523;53.336;83.690;2022-12-15T03:08:51;102782.66;;;-24.34;90.05
74169;BME280;62523;53.336;83.690;2022-12-15T03:13:53;102771.06;;;-24.70;89.51
74169;BME280;62523;53.336;83.690;2022-12-15T03:18:54;102772.75;;;-25.12;88.66
74169;BME280;62523;53.336;83.690;2022-12-15T03:23:55;102770.94;;;-25.07;88.78
74169;BME280;62523;53.336;83.690;2022-12-15T03:28:56;102780.72;;;-24.90;88.90
74169;BME280;62523;53.336;83.690;2022-12-15T03:33:57;102747.47;;;-24.91;88.56
74169;BME280;62523;53.336;83.690;2022-12-15T03:38:59;102782.66;;;-24.76;88.47
74169;BME280;62523;53.336;83.690;2022-12-15T03:44:01;102793.72;;;-24.98;88.01
74169;BME280;62523;53.336;83.690;2022-12-15T03:49:02;102777.34;;;-24.91;87.82
74169;BME280;62523;53.336;83.690;2022-12-15T03:54:03;102785.78;;;-24.72;87.71
74169;BME280;62523;53.336;83.690;2022-12-15T03:59:05;102784.13;;;-24.47;87.60
74169;BME280;62523;53.336;83.690;2022-12-15T04:04:06;102761.69;;;-24.23;87.55
74169;BME280;62523;53.336;83.690;2022-12-15T04:09:07;102780.25;;;-24.03;87.51
74169;BME280;62523;53.336;83.690;2022-12-15T04:14:08;102759.69;;;-23.89;87.02
74169;BME280;62523;53.336;83.690;2022-12-15T04:19:10;102767.91;;;-23.77;86.47
74169;BME280;62523;53.336;83.690;2022-12-15T04:24:29;102779.00;;;-23.75;85.77
74169;BME280;62523;53.336;83.690;2022-12-15T04:29:49;102758.53;;;-23.72;85.67
74169;BME280;62523;53.336;83.690;2022-12-15T04:35:10;102776.75;;;-23.17;84.88
74169;BME280;62523;53.336;83.690;2022-12-15T04:40:30;102777.78;;;-23.09;83.78
74169;BME280;62523;53.336;83.690;2022-12-15T04:45:51;102781.50;;;-22.61;82.11
74169;BME280;62523;53.336;83.690;2022-12-15T04:51:11;102789.06;;;-22.54;81.59
74169;BME280;62523;53.336;83.690;2022-12-15T04:56:30;102793.78;;;-22.37;80.75
74169;BME280;62523;53.336;83.690;2022-12-15T05:01:50;102799.66;;;-22.49;80.46
74169;BME280;62523;53.336;83.690;2022-12-15T05:07:10;102804.66;;;-22.37;81.00
74169;BME280;62523;53.336;83.690;2022-12-15T05:12:30;102782.09;;;-22.57;81.27
74169;BME280;62523;53.336;83.690;2022-12-15T05:17:50;102793.63;;;-22.06;80.93
74169;BME280;62523;53.336;83.690;2022-12-15T05:23:10;102783.28;;;-21.89;80.77
74169;BME280;62523;53.336;83.690;2022-12-15T05:28:29;102777.66;;;-22.26;81.22
74169;BME280;62523;53.336;83.690;2022-12-15T05:33:49;102794.31;;;-22.07;81.66
74169;BME280;62523;53.336;83.690;2022-12-15T05:38:51;102784.00;;;-22.03;80.88
74169;BME280;62523;53.336;83.690;2022-12-15T05:43:52;102788.00;;;-21.65;81.40
74169;BME280;62523;53.336;83.690;2022-12-15T05:48:53;102775.50;;;-21.98;81.07
74169;BME280;62523;53.336;83.690;2022-12-15T05:53:54;102789.09;;;-21.63;81.13
74169;BME280;62523;53.336;83.690;2022-12-15T05:58:56;102796.94;;;-21.47;80.48
74169;BME280;62523;53.336;83.690;2022-12-15T06:03:58;102796.06;;;-21.40;79.56
74169;BME280;62523;53.336;83.690;2022-12-15T06:08:59;102768.56;;;-21.60;79.81
74169;BME280;62523;53.336;83.690;2022-12-15T06:14:00;102760.94;;;-21.28;80.01
74169;BME280;62523;53.336;83.690;2022-12-15T06:19:02;102767.53;;;-21.08;80.22
74169;BME280;62523;53.336;83.690;2022-12-15T06:24:04;102767.81;;;-20.72;79.93
74169;BME280;62523;53.336;83.690;2022-12-15T06:29:09;102764.72;;;-20.42;79.36
74169;BME280;62523;53.336;83.690;2022-12-15T06:34:12;102756.38;;;-20.70;79.05
74169;BME280;62523;53.336;83.690;2022-12-15T06:39:15;102761.44;;;-20.56;77.82
74169;BME280;62523;53.336;83.690;2022-12-15T06:44:16;102760.16;;;-20.18;77.88
74169;BME280;62523;53.336;83.690;2022-12-15T06:49:17;102758.88;;;-20.21;79.05
74169;BME280;62523;53.336;83.690;2022-12-15T06:54:19;102710.50;;;-20.76;78.75
74169;BME280;62523;53.336;83.690;2022-12-15T06:59:20;102770.72;;;-20.20;79.28
74169;BME280;62523;53.336;83.690;2022-12-15T07:04:21;102790.44;;;-20.24;78.96
74169;BME280;62523;53.336;83.690;2022-12-15T07:09:23;102789.28;;;-19.98;78.49
74169;BME280;62523;53.336;83.690;2022-12-15T07:14:25;102793.41;;;-19.92;79.15
74169;BME280;62523;53.336;83.690;2022-12-15T07:19:27;102804.00;;;-19.94;78.63
74169;BME280;62523;53.336;83.690;2022-12-15T07:24:28;102802.56;;;-19.92;78.33
74169;BME280;62523;53.336;83.690;2022-12-15T07:29:29;102801.94;;;-20.11;77.97
74169;BME280;62523;53.336;83.690;2022-12-15T07:34:30;102817.63;;;-20.27;79.04
74169;BME280;62523;53.336;83.690;2022-12-15T07:39:32;102805.84;;;-20.20;79.95
74169;BME280;62523;53.336;83.690;2022-12-15T07:44:33;102804.50;;;-20.38;78.99
74169;BME280;62523;53.336;83.690;2022-12-15T07:49:34;102807.59;;;-20.27;79.11
74169;BME280;62523;53.336;83.690;2022-12-15T07:54:35;102786.34;;;-20.50;79.55
74169;BME280;62523;53.336;83.690;2022-12-15T07:59:37;102790.78;;;-20.55;80.65
74169;BME280;62523;53.336;83.690;2022-12-15T08:04:38;102821.84;;;-20.47;81.18
74169;BME280;62523;53.336;83.690;2022-12-15T08:09:40;102830.38;;;-20.25;80.74
74169;BME280;62523;53.336;83.690;2022-12-15T08:14:41;102818.88;;;-20.65;79.69
74169;BME280;62523;53.336;83.690;2022-12-15T08:19:43;102829.25;;;-20.34;80.06
74169;BME280;62523;53.336;83.690;2022-12-15T08:24:44;102813.47;;;-20.68;79.62
74169;BME280;62523;53.336;83.690;2022-12-15T08:29:45;102800.59;;;-20.91;79.80
74169;BME280;62523;53.336;83.690;2022-12-15T08:34:47;102807.38;;;-20.70;80.12
74169;BME280;62523;53.336;83.690;2022-12-15T08:39:49;102801.44;;;-20.77;79.49
74169;BME280;62523;53.336;83.690;2022-12-15T08:44:51;102813.53;;;-20.88;79.68
74169;BME280;62523;53.336;83.690;2022-12-15T08:49:52;102816.00;;;-20.68;80.00
74169;BME280;62523;53.336;83.690;2022-12-15T08:54:54;102825.97;;;-20.75;79.52
74169;BME280;62523;53.336;83.690;2022-12-15T08:59:55;102815.19;;;-20.81;79.47
74169;BME280;62523;53.336;83.690;2022-12-15T09:04:56;102825.81;;;-20.96;79.17
74169;BME280;62523;53.336;83.690;2022-12-15T09:09:57;102826.91;;;-20.94;78.94
74169;BME280;62523;53.336;83.690;2022-12-15T09:14:58;102834.91;;;-20.97;79.32
74169;BME280;62523;53.336;83.690;2022-12-15T09:19:59;102812.38;;;-21.17;80.69
74169;BME280;62523;53.336;83.690;2022-12-15T09:25:02;102834.66;;;-21.06;80.95
74169;BME280;62523;53.336;83.690;2022-12-15T09:30:04;102847.19;;;-21.06;81.63
74169;BME280;62523;53.336;83.690;2022-12-15T09:35:06;102851.34;;;-21.19;81.69
74169;BME280;62523;53.336;83.690;2022-12-15T09:40:10;102862.72;;;-21.28;81.75
74169;BME280;62523;53.336;83.690;2022-12-15T09:45:25;102860.84;;;-21.36;81.68
74169;BME280;62523;53.336;83.690;2022-12-15T09:50:40;102845.22;;;-21.48;82.39
74169;BME280;62523;53.336;83.690;2022-12-15T09:55:45;102861.16;;;-21.60;82.33
74169;BME280;62523;53.336;83.690;2022-12-15T10:01:02;102868.47;;;-21.75;82.10
74169;BME280;62523;53.336;83.690;2022-12-15T10:16:52;102887.72;;;-22.06;83.10
74169;BME280;62523;53.336;83.690;2022-12-15T10:21:56;102869.88;;;-22.22;83.67
74169;BME280;62523;53.336;83.690;2022-12-15T10:27:07;102871.06;;;-22.26;83.88
74169;BME280;62523;53.336;83.690;2022-12-15T10:37:38;102868.78;;;-22.24;84.53
74169;BME280;62523;53.336;83.690;2022-12-15T10:42:49;102857.53;;;-22.21;84.66
74169;BME280;62523;53.336;83.690;2022-12-15T10:47:57;102858.13;;;-22.16;85.04
74169;BME280;62523;53.336;83.690;2022-12-15T10:52:59;102853.22;;;-22.09;85.60
74169;BME280;62523;53.336;83.690;2022-12-15T10:58:03;102858.03;;;-21.98;84.82
74169;BME280;62523;53.336;83.690;2022-12-15T11:03:22;102871.22;;;-21.99;85.13
74169;BME280;62523;53.336;83.690;2022-12-15T11:08:31;102876.94;;;-21.87;85.81
74169;BME280;62523;53.336;83.690;2022-12-15T11:13:32;102868.72;;;-21.86;85.39
74169;BME280;62523;53.336;83.690;2022-12-15T11:18:57;102865.69;;;-21.83;85.33
74169;BME280;62523;53.336;83.690;2022-12-15T11:24:15;102882.09;;;-21.73;85.60
74169;BME280;62523;53.336;83.690;2022-12-15T11:34:29;102878.41;;;-21.82;85.49
74169;BME280;62523;53.336;83.690;2022-12-15T11:39:48;102869.28;;;-21.69;86.34
74169;BME280;62523;53.336;83.690;2022-12-15T11:45:26;102888.31;;;-21.76;86.06
74169;BME280;62523;53.336;83.690;2022-12-15T12:00:53;102857.13;;;-21.53;87.08
74169;BME280;62523;53.336;83.690;2022-12-15T12:06:52;102859.13;;;-21.50;86.86
74169;BME280;62523;53.336;83.690;2022-12-15T12:11:54;102864.13;;;-21.50;87.54
74169;BME280;62523;53.336;83.690;2022-12-15T12:23:04;102848.19;;;-21.51;87.88
74169;BME280;62523;53.336;83.690;2022-12-15T12:28:15;102820.13;;;-21.68;87.39
74169;BME280;62523;53.336;83.690;2022-12-15T12:33:39;102849.81;;;-21.51;88.12
74169;BME280;62523;53.336;83.690;2022-12-15T12:38:49;102848.81;;;-21.46;88.02
74169;BME280;62523;53.336;83.690;2022-12-15T12:43:54;102831.72;;;-21.56;88.61
74169;BME280;62523;53.336;83.690;2022-12-15T12:49:26;102832.50;;;-21.50;88.37
74169;BME280;62523;53.336;83.690;2022-12-15T12:59:37;102822.25;;;-21.71;88.85
74169;BME280;62523;53.336;83.690;2022-12-15T13:04:50;102830.13;;;-21.68;88.65
74169;BME280;62523;53.336;83.690;2022-12-15T13:10:16;102831.22;;;-21.66;89.52
74169;BME280;62523;53.336;83.690;2022-12-15T13:15:36;102818.19;;;-21.63;89.08
74169;BME280;62523;53.336;83.690;2022-12-15T13:20:39;102820.53;;;-21.65;89.00
74169;BME280;62523;53.336;83.690;2022-12-15T13:25:42;102789.56;;;-21.85;89.69
74169;BME280;62523;53.336;83.690;2022-12-15T13:47:25;102812.63;;;-21.68;90.17
74169;BME280;62523;53.336;83.690;2022-12-15T13:52:35;102776.97;;;-21.93;90.32
74169;BME280;62523;53.336;83.690;2022-12-15T13:57:47;102809.84;;;-21.77;90.20
74169;BME280;62523;53.336;83.690;2022-12-15T14:03:05;102812.84;;;-21.79;90.54
74169;BME280;62523;53.336;83.690;2022-12-15T14:08:13;102796.94;;;-21.80;90.51
74169;BME280;62523;53.336;83.690;2022-12-15T14:13:51;102808.06;;;-21.78;90.30
74169;BME280;62523;53.336;83.690;2022-12-15T14:19:22;102803.06;;;-21.78;90.34
74169;BME280;62523;53.336;83.690;2022-12-15T14:24:29;102719.00;;;-22.16;90.24
74169;BME280;62523;53.336;83.690;2022-12-15T14:29:30;102769.94;;;-21.82;90.30
74169;BME280;62523;53.336;83.690;2022-12-15T14:34:35;102768.13;;;-21.83;90.31
74169;BME280;62523;53.336;83.690;2022-12-15T14:39:43;102795.25;;;-21.74;90.68
74169;BME280;62523;53.336;83.690;2022-12-15T14:44:49;102788.34;;;-21.82;90.68
74169;BME280;62523;53.336;83.690;2022-12-15T14:49:52;102781.56;;;-21.96;90.49
74169;BME280;62523;53.336;83.690;2022-12-15T14:54:57;102777.69;;;-22.06;90.65
74169;BME280;62523;53.336;83.690;2022-12-15T14:59:58;102785.69;;;-22.09;91.22
74169;BME280;62523;53.336;83.690;2022-12-15T15:05:04;102728.19;;;-22.29;91.03
74169;BME280;62523;53.336;83.690;2022-12-15T15:10:21;102772.22;;;-22.04;91.45
74169;BME280;62523;53.336;83.690;2022-12-15T15:15:25;102771.13;;;-22.06;90.91
74169;BME280;62523;53.336;83.690;2022-12-15T15:20:29;102776.63;;;-22.08;90.64
74169;BME280;62523;53.336;83.690;2022-12-15T15:25:54;102766.72;;;-22.14;90.94
74169;BME280;62523;53.336;83.690;2022-12-15T15:30:58;102776.41;;;-22.10;90.28
74169;BME280;62523;53.336;83.690;2022-12-15T15:36:08;102798.94;;;-22.10;90.41
74169;BME280;62523;53.336;83.690;2022-12-15T15:41:16;102738.78;;;-22.37;90.29
74169;BME280;62523;53.336;83.690;2022-12-15T15:46:20;102752.00;;;-22.38;90.58
74169;BME280;62523;53.336;83.690;2022-12-15T15:51:27;102763.25;;;-22.22;90.04
74169;BME280;62523;53.336;83.690;2022-12-15T15:56:29;102760.97;;;-22.33;89.94
74169;BME280;62523;53.336;83.690;2022-12-15T16:01:30;102747.47;;;-22.41;90.28
74169;BME280;62523;53.336;83.690;2022-12-15T16:06:31;102748.91;;;-22.43;89.75
74169;BME280;62523;53.336;83.690;2022-12-15T16:11:33;102741.00;;;-22.46;90.08
74169;BME280;62523;53.336;83.690;2022-12-15T16:16:35;102743.50;;;-22.46;89.67
74169;BME280;62523;53.336;83.690;2022-12-15T16:21:36;102686.34;;;-22.76;89.92
74169;BME280;62523;53.336;83.690;2022-12-15T16:26:39;102706.31;;;-22.50;89.89
74169;BME280;62523;53.336;83.690;2022-12-15T16:31:45;102720.78;;;-22.35;90.11
74169;BME280;62523;53.336;83.690;2022-12-15T16:36:46;102679.94;;;-22.61;90.09
74169;BME280;62523;53.336;83.690;2022-12-15T16:41:47;102713.31;;;-22.47;90.44
74169;BME280;62523;53.336;83.690;2022-12-15T16:46:48;102721.72;;;-22.47;90.64
74169;BME280;62523;53.336;83.690;2022-12-15T16:51:51;102717.81;;;-22.45;90.94
74169;BME280;62523;53.336;83.690;2022-12-15T16:56:53;102693.75;;;-22.57;90.46
74169;BME280;62523;53.336;83.690;2022-12-15T17:01:56;102716.53;;;-22.48;91.00
74169;BME280;62523;53.336;83.690;2022-12-15T17:06:57;102717.41;;;-22.48;90.50
74169;BME280;62523;53.336;83.690;2022-12-15T17:11:59;102666.81;;;-22.85;90.32
74169;BME280;62523;53.336;83.690;2022-12-15T17:17:01;102716.75;;;-22.73;89.87
74169;BME280;62523;53.336;83.690;2022-12-15T17:22:02;102691.50;;;-23.07;90.22
74169;BME280;62523;53.336;83.690;2022-12-15T17:27:04;102676.09;;;-23.23;90.69
74169;BME280;62523;53.336;83.690;2022-12-15T17:32:11;102700.28;;;-23.29;90.52
74169;BME280;62523;53.336;83.690;2022-12-15T17:37:13;102666.69;;;-23.57;90.77
74169;BME280;62523;53.336;83.690;2022-12-15T17:42:16;102691.66;;;-23.57;90.67
74169;BME280;62523;53.336;83.690;2022-12-15T17:47:19;102697.41;;;-23.76;90.39
74169;BME280;62523;53.336;83.690;2022-12-15T17:52:25;102686.50;;;-23.77;90.06
74169;BME280;62523;53.336;83.690;2022-12-15T17:57:35;102667.16;;;-23.85;90.22
74169;BME280;62523;53.336;83.690;2022-12-15T18:02:40;102686.81;;;-23.68;90.24
74169;BME280;62523;53.336;83.690;2022-12-15T18:07:47;102693.38;;;-23.68;90.95
74169;BME280;62523;53.336;83.690;2022-12-15T18:12:51;102620.09;;;-24.07;90.70
74169;BME280;62523;53.336;83.690;2022-12-15T18:17:53;102690.13;;;-23.62;91.50
74169;BME280;62523;53.336;83.690;2022-12-15T18:22:56;102657.28;;;-23.78;91.37
74169;BME280;62523;53.336;83.690;2022-12-15T18:27:59;102633.81;;;-23.72;91.75
74169;BME280;62523;53.336;83.690;2022-12-15T18:33:00;102681.28;;;-23.34;91.65
74169;BME280;62523;53.336;83.690;2022-12-15T18:43:15;102670.94;;;-23.24;91.15
74169;BME280;62523;53.336;83.690;2022-12-15T18:48:29;102668.81;;;-23.21;91.50
74169;BME280;62523;53.336;83.690;2022-12-15T18:53:36;102661.84;;;-23.11;91.18
74169;BME280;62523;53.336;83.690;2022-12-15T18:58:40;102645.84;;;-23.19;90.75
74169;BME280;62523;53.336;83.690;2022-12-15T19:03:42;102644.06;;;-23.20;90.66
74169;BME280;62523;53.336;83.690;2022-12-15T19:08:43;102676.41;;;-23.01;90.63
74169;BME280;62523;53.336;83.690;2022-12-15T19:13:47;102668.91;;;-23.14;90.67
74169;BME280;62523;53.336;83.690;2022-12-15T19:18:51;102679.41;;;-23.04;90.55
74169;BME280;62523;53.336;83.690;2022-12-15T19:24:20;102667.81;;;-23.03;89.99
74169;BME280;62523;53.336;83.690;2022-12-15T19:29:42;102673.63;;;-23.10;89.81
74169;BME280;62523;53.336;83.690;2022-12-15T19:34:44;102674.13;;;-23.12;89.75
74169;BME280;62523;53.336;83.690;2022-12-15T19:39:46;102679.59;;;-23.28;89.71
74169;BME280;62523;53.336;83.690;2022-12-15T19:44:49;102691.28;;;-23.34;89.47
74169;BME280;62523;53.336;83.690;2022-12-15T19:49:53;102679.59;;;-23.41;89.39
74169;BME280;62523;53.336;83.690;2022-12-15T19:55:01;102672.97;;;-23.53;89.34
74169;BME280;62523;53.336;83.690;2022-12-15T20:05:18;102656.22;;;-23.54;89.51
74169;BME280;62523;53.336;83.690;2022-12-15T20:10:22;102657.22;;;-23.33;89.64
74169;BME280;62523;53.336;83.690;2022-12-15T20:15:24;102643.25;;;-23.39;89.83
74169;BME280;62523;53.336;83.690;2022-12-15T20:20:28;102653.56;;;-23.17;89.89
74169;BME280;62523;53.336;83.690;2022-12-15T20:25:34;102631.38;;;-23.21;90.20
74169;BME280;62523;53.336;83.690;2022-12-15T20:30:36;102635.19;;;-23.18;89.86
74169;BME280;62523;53.336;83.690;2022-12-15T20:35:38;102644.88;;;-23.13;89.70
74169;BME280;62523;53.336;83.690;2022-12-15T20:40:48;102611.41;;;-23.21;89.96
74169;BME280;62523;53.336;83.690;2022-12-15T20:46:02;102625.28;;;-23.10;89.77
74169;BME280;62523;53.336;83.690;2022-12-15T20:51:23;102619.75;;;-22.95;90.03
74169;BME280;62523;53.336;83.690;2022-12-15T20:56:27;102560.31;;;-23.18;89.41
74169;BME280;62523;53.336;83.690;2022-12-15T21:01:32;102603.13;;;-22.82;89.45
74169;BME280;62523;53.336;83.690;2022-12-15T21:06:36;102612.09;;;-22.64;89.90
74169;BME280;62523;53.336;83.690;2022-12-15T21:11:40;102611.69;;;-22.67;89.88
74169;BME280;62523;53.336;83.690;2022-12-15T21:16:44;102602.34;;;-22.75;89.37
74169;BME280;62523;53.336;83.690;2022-12-15T21:21:48;102607.53;;;-22.74;89.28
74169;BME280;62523;53.336;83.690;2022-12-15T21:26:51;102600.63;;;-22.82;89.28
74169;BME280;62523;53.336;83.690;2022-12-15T21:31:52;102562.13;;;-22.97;89.96
74169;BME280;62523;53.336;83.690;2022-12-15T21:36:55;102552.44;;;-22.88;90.19
74169;BME280;62523;53.336;83.690;2022-12-15T21:42:05;102596.81;;;-22.60;89.62
74169;BME280;62523;53.336;83.690;2022-12-15T21:52:25;102586.91;;;-22.65;90.43
74169;BME280;62523;53.336;83.690;2022-12-15T21:57:27;102591.03;;;-22.66;90.26
74169;BME280;62523;53.336;83.690;2022-12-15T22:02:31;102537.34;;;-22.95;90.14
74169;BME280;62523;53.336;83.690;2022-12-15T22:07:36;102556.28;;;-22.77;90.74
74169;BME280;62523;53.336;83.690;2022-12-15T22:12:41;102590.84;;;-22.47;90.94
74169;BME280;62523;53.336;83.690;2022-12-15T22:17:44;102587.66;;;-22.46;91.15
74169;BME280;62523;53.336;83.690;2022-12-15T22:22:46;102572.34;;;-22.42;91.65
74169;BME280;62523;53.336;83.690;2022-12-15T22:27:47;102547.94;;;-22.38;91.33
74169;BME280;62523;53.336;83.690;2022-12-15T22:32:49;102538.63;;;-22.39;91.48
74169;BME280;62523;53.336;83.690;2022-12-15T22:37:50;102572.63;;;-22.34;90.72
74169;BME280;62523;53.336;83.690;2022-12-15T22:42:56;102583.56;;;-22.46;91.04
74169;BME280;62523;53.336;83.690;2022-12-15T22:47:58;102534.19;;;-22.74;90.62
74169;BME280;62523;53.336;83.690;2022-12-15T22:53:10;102559.81;;;-22.62;90.78
74169;BME280;62523;53.336;83.690;2022-12-15T22:58:19;102552.72;;;-22.59;91.38
74169;BME280;62523;53.336;83.690;2022-12-15T23:03:26;102553.00;;;-22.50;91.55
74169;BME280;62523;53.336;83.690;2022-12-15T23:08:29;102546.53;;;-22.56;91.78
74169;BME280;62523;53.336;83.690;2022-12-15T23:13:31;102526.06;;;-22.66;91.99
74169;BME280;62523;53.336;83.690;2022-12-15T23:18:35;102529.78;;;-22.49;93.03
74169;BME280;62523;53.336;83.690;2022-12-15T23:23:37;102526.78;;;-22.27;93.50
74169;BME280;62523;53.336;83.690;2022-12-15T23:28:39;102490.44;;;-22.38;93.42
74169;BME280;62523;53.336;83.690;2022-12-15T23:33:41;102515.91;;;-22.20;93.57
74169;BME280;62523;53.336;83.690;2022-12-15T23:38:51;102515.84;;;-22.07;93.57
74169;BME280;62523;53.336;83.690;2022-12-15T23:43:55;102492.88;;;-22.25;93.35
74169;BME280;62523;53.336;83.690;2022-12-15T23:48:57;102508.66;;;-22.12;94.15
74169;BME280;62523;53.336;83.690;2022-12-15T23:53:59;102485.03;;;-22.21;93.25
74169;BME280;62523;53.336;83.690;2022-12-15T23:59:00;102449.84;;;-22.22;93.56
